createdAt,value
2018-05-26T00:00:32.487Z,19.77
2018-05-26T00:02:58.879Z,19.64
2018-05-26T00:05:25.282Z,19.67
2018-05-26T00:07:52.477Z,19.58
2018-05-26T00:10:19.182Z,19.60
2018-05-26T00:12:45.543Z,19.47
2018-05-26T00:15:11.949Z,19.43
2018-05-26T00:17:38.378Z,19.25
2018-05-26T00:20:04.761Z,19.13
2018-05-26T00:22:31.178Z,18.98
2018-05-26T00:24:57.652Z,18.83
2018-05-26T00:27:24.106Z,18.72
2018-05-26T00:29:50.851Z,18.65
2018-05-26T00:32:17.239Z,18.63
2018-05-26T00:34:43.621Z,18.63
2018-05-26T00:37:10.041Z,18.76
2018-05-26T00:39:37.196Z,18.75
2018-05-26T00:42:03.600Z,18.67
2018-05-26T00:44:29.988Z,18.64
2018-05-26T00:46:56.509Z,18.63
2018-05-26T00:49:22.901Z,18.60
2018-05-26T00:51:49.565Z,18.53
2018-05-26T00:54:16.207Z,18.60
2018-05-26T00:56:42.579Z,18.71
2018-05-26T00:59:08.966Z,18.73
2018-05-26T01:01:36.091Z,18.67
2018-05-26T01:04:02.860Z,18.54
2018-05-26T01:06:29.358Z,18.47
2018-05-26T01:08:56.104Z,18.43
2018-05-26T01:11:22.536Z,18.40
2018-05-26T01:13:48.909Z,18.30
2018-05-26T01:16:15.339Z,18.22
2018-05-26T01:18:41.765Z,18.16
2018-05-26T01:21:08.241Z,18.05
2018-05-26T01:23:34.772Z,17.99
2018-05-26T01:26:01.248Z,18.06
2018-05-26T01:28:28.470Z,18.23
2018-05-26T01:30:54.915Z,18.24
2018-05-26T01:33:21.283Z,18.18
2018-05-26T01:35:47.845Z,18.11
2018-05-26T01:38:14.243Z,18.12
2018-05-26T01:40:41.441Z,18.13
2018-05-26T01:43:08.024Z,18.03
2018-05-26T01:45:35.180Z,18.00
2018-05-26T01:48:02.378Z,17.91
2018-05-26T01:50:28.884Z,17.90
2018-05-26T01:52:55.393Z,17.96
2018-05-26T01:55:22.589Z,18.07
2018-05-26T01:57:49.003Z,18.06
2018-05-26T02:00:15.440Z,17.94
2018-05-26T02:02:42.162Z,17.91
2018-05-26T02:05:08.648Z,17.93
2018-05-26T02:07:35.334Z,17.91
2018-05-26T02:10:02.513Z,17.90
2018-05-26T02:12:29.016Z,17.90
2018-05-26T02:14:55.379Z,17.72
2018-05-26T02:17:21.811Z,17.62
2018-05-26T02:19:48.173Z,17.58
2018-05-26T02:22:14.513Z,17.55
2018-05-26T02:24:40.912Z,17.48
2018-05-26T02:27:07.379Z,17.42
2018-05-26T02:29:33.843Z,17.39
2018-05-26T02:32:00.302Z,17.44
2018-05-26T02:34:26.734Z,17.62
2018-05-26T02:36:53.184Z,17.60
2018-05-26T02:39:19.674Z,17.41
2018-05-26T02:41:46.315Z,17.26
2018-05-26T02:44:13.437Z,17.15
2018-05-26T02:46:39.875Z,17.10
2018-05-26T02:49:07.131Z,17.00
2018-05-26T02:51:34.267Z,16.95
2018-05-26T02:54:00.697Z,16.93
2018-05-26T02:56:27.065Z,16.96
2018-05-26T02:58:54.269Z,16.95
2018-05-26T03:01:22.049Z,17.00
2018-05-26T03:03:49.108Z,17.03
2018-05-26T03:06:22.625Z,16.96
2018-05-26T03:08:55.157Z,16.90
2018-05-26T03:11:27.712Z,16.85
2018-05-26T03:14:00.268Z,16.80
2018-05-26T03:16:26.711Z,16.78
2018-05-26T03:18:53.358Z,16.84
2018-05-26T03:21:19.750Z,16.98
2018-05-26T03:23:46.153Z,16.92
2018-05-26T03:26:12.835Z,16.86
2018-05-26T03:28:39.245Z,16.87
2018-05-26T03:31:06.454Z,16.95
2018-05-26T03:33:32.852Z,16.93
2018-05-26T03:35:59.310Z,16.89
2018-05-26T03:38:26.026Z,16.89
2018-05-26T03:40:52.431Z,16.84
2018-05-26T03:43:19.661Z,16.88
2018-05-26T03:45:46.041Z,17.04
2018-05-26T03:48:12.470Z,17.14
2018-05-26T03:50:38.986Z,17.05
2018-05-26T03:53:06.101Z,17.08
2018-05-26T03:58:56.843Z,17.18
2018-05-26T04:01:23.258Z,17.34
2018-05-26T04:03:49.689Z,17.37
2018-05-26T04:06:16.075Z,17.55
2018-05-26T04:08:42.809Z,17.63
2018-05-26T04:11:09.194Z,17.76
2018-05-26T04:13:35.894Z,17.82
2018-05-26T04:16:02.277Z,17.84
2018-05-26T04:18:28.685Z,17.93
2018-05-26T04:20:55.239Z,17.94
2018-05-26T04:23:21.643Z,17.86
2018-05-26T04:25:48.351Z,17.82
2018-05-26T04:28:14.749Z,17.87
2018-05-26T04:30:41.182Z,17.93
2018-05-26T04:33:08.377Z,17.97
2018-05-26T04:35:34.787Z,18.06
2018-05-26T04:38:01.938Z,18.21
2018-05-26T04:40:29.099Z,18.42
2018-05-26T04:42:56.560Z,18.47
2018-05-26T04:45:22.998Z,18.30
2018-05-26T04:47:49.369Z,18.22
2018-05-26T04:50:15.815Z,18.31
2018-05-26T04:52:42.280Z,18.30
2018-05-26T04:55:09.425Z,18.39
2018-05-26T04:57:36.681Z,18.47
2018-05-26T05:00:03.840Z,18.58
2018-05-26T05:02:30.996Z,18.51
2018-05-26T05:04:57.408Z,18.63
2018-05-26T05:07:24.672Z,18.85
2018-05-26T05:09:51.826Z,18.76
2018-05-26T05:12:18.262Z,18.89
2018-05-26T05:14:44.666Z,19.12
2018-05-26T05:17:11.049Z,19.21
2018-05-26T05:19:37.512Z,19.35
2018-05-26T05:22:03.937Z,19.55
2018-05-26T05:24:30.298Z,19.44
2018-05-26T05:26:57.433Z,19.76
2018-05-26T05:29:23.896Z,19.79
2018-05-26T05:31:51.144Z,19.73
2018-05-26T05:34:18.509Z,19.67
2018-05-26T05:36:45.657Z,19.85
2018-05-26T05:39:12.193Z,20.01
2018-05-26T05:41:38.584Z,20.16
2018-05-26T05:44:05.003Z,20.24
2018-05-26T05:46:31.386Z,20.21
2018-05-26T05:48:58.615Z,20.47
2018-05-26T05:51:25.165Z,20.91
2018-05-26T05:53:52.289Z,20.87
2018-05-26T05:56:19.495Z,20.95
2018-05-26T05:58:45.908Z,21.06
2018-05-26T06:01:13.059Z,21.13
2018-05-26T06:03:39.803Z,21.07
2018-05-26T06:06:06.205Z,20.71
2018-05-26T06:08:32.578Z,20.81
2018-05-26T06:10:58.959Z,21.07
2018-05-26T06:13:26.142Z,21.05
2018-05-26T06:15:53.298Z,20.99
2018-05-26T06:18:20.039Z,20.81
2018-05-26T06:20:46.776Z,20.71
2018-05-26T06:23:14.233Z,20.82
2018-05-26T06:25:40.682Z,20.59
2018-05-26T06:28:07.116Z,20.49
2018-05-26T06:30:33.694Z,20.68
2018-05-26T06:33:00.140Z,20.75
2018-05-26T06:35:26.808Z,20.76
2018-05-26T06:37:53.961Z,20.86
2018-05-26T06:40:20.386Z,20.80
2018-05-26T06:42:47.539Z,21.01
2018-05-26T06:45:14.694Z,21.34
2018-05-26T06:47:41.150Z,21.41
2018-05-26T06:50:07.961Z,21.88
2018-05-26T06:52:35.205Z,21.91
2018-05-26T06:55:02.318Z,21.97
2018-05-26T06:57:29.009Z,22.38
2018-05-26T06:59:55.373Z,22.64
2018-05-26T07:02:21.750Z,22.42
2018-05-26T07:04:48.505Z,22.38
2018-05-26T07:07:15.713Z,22.89
2018-05-26T07:09:42.080Z,22.45
2018-05-26T07:12:09.227Z,22.99
2018-05-26T07:14:36.697Z,23.22
2018-05-26T07:17:03.809Z,23.21
2018-05-26T07:19:30.297Z,23.00
2018-05-26T07:21:56.849Z,23.35
2018-05-26T07:24:23.274Z,23.34
2018-05-26T07:26:49.669Z,23.50
2018-05-26T07:29:16.800Z,23.67
2018-05-26T07:31:43.219Z,23.99
2018-05-26T07:34:09.577Z,24.10
2018-05-26T07:36:35.992Z,24.24
2018-05-26T07:39:02.516Z,24.14
2018-05-26T07:41:28.993Z,24.29
2018-05-26T07:43:56.150Z,24.61
2018-05-26T07:46:22.514Z,25.10
2018-05-26T07:48:48.890Z,25.31
2018-05-26T07:51:16.030Z,25.52
2018-05-26T07:53:43.220Z,25.37
2018-05-26T07:56:09.657Z,25.56
2018-05-26T07:58:36.036Z,25.79
2018-05-26T08:01:02.418Z,25.42
2018-05-26T08:03:28.877Z,25.80
2018-05-26T08:05:55.252Z,26.07
2018-05-26T08:08:21.645Z,26.01
2018-05-26T08:10:48.061Z,25.72
2018-05-26T08:13:14.473Z,25.77
2018-05-26T08:15:41.621Z,25.37
2018-05-26T08:18:08.050Z,25.37
2018-05-26T08:20:35.261Z,25.40
2018-05-26T08:23:01.665Z,25.64
2018-05-26T08:25:28.293Z,25.79
2018-05-26T08:27:54.763Z,25.85
2018-05-26T08:30:21.214Z,25.94
2018-05-26T08:32:47.724Z,26.47
2018-05-26T08:35:14.081Z,26.56
2018-05-26T08:37:40.447Z,26.86
2018-05-26T08:40:07.181Z,26.94
2018-05-26T08:42:33.632Z,26.39
2018-05-26T08:45:00.057Z,26.12
2018-05-26T08:47:26.422Z,26.78
2018-05-26T08:49:52.887Z,26.86
2018-05-26T08:52:19.234Z,27.41
2018-05-26T08:54:46.825Z,27.47
2018-05-26T08:57:13.295Z,27.00
2018-05-26T08:59:39.702Z,27.27
2018-05-26T09:02:06.098Z,27.55
2018-05-26T09:04:33.255Z,27.56
2018-05-26T09:06:59.721Z,27.46
2018-05-26T09:09:26.217Z,27.69
2018-05-26T09:11:53.346Z,28.08
2018-05-26T09:14:19.687Z,28.24
2018-05-26T09:16:46.835Z,28.23
2018-05-26T09:19:13.945Z,28.69
2018-05-26T09:21:40.438Z,28.99
2018-05-26T09:24:07.167Z,28.43
2018-05-26T09:26:34.270Z,27.54
2018-05-26T09:29:00.641Z,27.65
2018-05-26T09:31:27.730Z,28.36
2018-05-26T09:33:54.239Z,28.37
2018-05-26T09:36:20.693Z,28.28
2018-05-26T09:38:47.096Z,28.13
2018-05-26T09:41:14.264Z,28.56
2018-05-26T09:43:40.755Z,29.35
2018-05-26T09:46:07.093Z,29.05
2018-05-26T09:48:33.529Z,29.06
2018-05-26T09:53:53.157Z,29.54
2018-05-26T09:56:19.519Z,29.57
2018-05-26T09:58:45.863Z,29.96
2018-05-26T10:01:12.293Z,30.47
2018-05-26T10:03:38.669Z,30.25
2018-05-26T10:06:05.782Z,30.19
2018-05-26T10:08:32.141Z,30.39
2018-05-26T10:10:59.227Z,30.48
2018-05-26T10:13:25.683Z,30.17
2018-05-26T10:15:52.131Z,30.11
2018-05-26T10:18:18.519Z,30.17
2018-05-26T10:20:44.913Z,30.31
2018-05-26T10:23:12.228Z,30.17
2018-05-26T10:25:38.612Z,30.44
2018-05-26T10:28:05.758Z,30.66
2018-05-26T10:30:33.017Z,30.72
2018-05-26T10:33:00.236Z,30.70
2018-05-26T10:35:26.703Z,30.71
2018-05-26T10:37:53.145Z,30.84
2018-05-26T10:40:19.617Z,31.22
2018-05-26T10:42:46.099Z,31.44
2018-05-26T10:45:13.201Z,31.45
2018-05-26T10:47:39.581Z,31.28
2018-05-26T10:50:06.053Z,30.91
2018-05-26T10:52:32.495Z,31.17
2018-05-26T10:54:58.923Z,30.50
2018-05-26T10:57:25.344Z,30.26
2018-05-26T10:59:51.720Z,30.30
2018-05-26T11:02:18.081Z,30.25
2018-05-26T11:04:44.482Z,31.24
2018-05-26T11:07:10.892Z,31.38
2018-05-26T11:09:37.349Z,31.06
2018-05-26T11:12:04.983Z,31.24
2018-05-26T11:14:31.451Z,31.22
2018-05-26T11:16:58.706Z,31.32
2018-05-26T11:19:25.924Z,31.26
2018-05-26T11:21:52.447Z,31.52
2018-05-26T11:24:19.065Z,31.61
2018-05-26T11:26:45.375Z,30.47
2018-05-26T11:29:11.801Z,30.95
2018-05-26T11:31:38.931Z,31.50
2018-05-26T11:34:05.401Z,31.52
2018-05-26T11:36:31.921Z,30.87
2018-05-26T11:38:59.034Z,30.59
2018-05-26T11:41:25.722Z,31.29
2018-05-26T11:43:52.929Z,31.59
2018-05-26T11:46:19.327Z,31.26
2018-05-26T11:48:45.688Z,31.80
2018-05-26T11:51:12.054Z,31.79
2018-05-26T11:53:39.518Z,32.03
2018-05-26T11:56:05.973Z,32.51
2018-05-26T11:58:32.378Z,31.67
2018-05-26T12:00:59.525Z,31.13
2018-05-26T12:03:26.884Z,30.86
2018-05-26T12:05:54.082Z,30.74
2018-05-26T12:08:20.500Z,30.85
2018-05-26T12:10:46.996Z,30.93
2018-05-26T12:13:13.332Z,30.80
2018-05-26T12:15:40.465Z,31.32
2018-05-26T12:18:07.614Z,31.35
2018-05-26T12:20:34.713Z,32.07
2018-05-26T12:23:01.186Z,32.20
2018-05-26T12:25:27.598Z,31.79
2018-05-26T12:27:54.248Z,32.17
2018-05-26T12:30:20.728Z,32.95
2018-05-26T12:32:47.114Z,32.37
2018-05-26T12:35:13.658Z,32.16
2018-05-26T12:37:40.320Z,32.18
2018-05-26T12:40:07.536Z,32.79
2018-05-26T12:42:33.970Z,32.73
2018-05-26T12:45:00.421Z,32.40
2018-05-26T12:47:27.623Z,32.89
2018-05-26T12:49:54.332Z,33.27
2018-05-26T12:52:21.526Z,33.54
2018-05-26T12:54:48.277Z,33.31
2018-05-26T12:57:14.657Z,33.17
2018-05-26T12:59:41.790Z,33.11
2018-05-26T13:02:09.055Z,32.85
2018-05-26T13:04:35.438Z,33.24
2018-05-26T13:07:01.888Z,32.99
2018-05-26T13:09:29.025Z,33.47
2018-05-26T13:11:55.510Z,33.93
2018-05-26T13:14:21.891Z,34.41
2018-05-26T13:16:48.396Z,34.69
2018-05-26T13:19:14.961Z,35.52
2018-05-26T13:21:41.389Z,35.71
2018-05-26T13:24:07.942Z,37.27
2018-05-26T13:26:34.303Z,37.69
2018-05-26T13:29:01.625Z,38.09
2018-05-26T13:31:28.782Z,37.57
2018-05-26T13:33:55.170Z,37.80
2018-05-26T13:36:22.194Z,38.96
2018-05-26T13:38:48.606Z,39.48
2018-05-26T13:41:15.737Z,39.37
2018-05-26T13:43:42.105Z,40.99
2018-05-26T13:46:09.254Z,40.36
2018-05-26T13:48:36.358Z,39.77
2018-05-26T13:51:02.776Z,40.04
2018-05-26T13:53:29.314Z,41.76
2018-05-26T13:55:55.706Z,41.16
2018-05-26T13:58:22.338Z,41.76
2018-05-26T14:00:49.695Z,43.36
2018-05-26T14:03:16.795Z,42.42
2018-05-26T14:05:43.169Z,43.39
2018-05-26T14:08:10.503Z,41.64
2018-05-26T14:10:36.837Z,43.82
2018-05-26T14:13:03.204Z,44.05
2018-05-26T14:15:29.566Z,42.40
2018-05-26T14:17:55.994Z,43.01
2018-05-26T14:20:22.423Z,43.45
2018-05-26T14:22:48.786Z,40.59
2018-05-26T14:25:15.262Z,41.80
2018-05-26T14:27:42.097Z,43.84
2018-05-26T14:30:08.566Z,42.18
2018-05-26T14:32:34.933Z,42.05
2018-05-26T14:35:01.446Z,42.98
2018-05-26T14:37:27.858Z,43.62
2018-05-26T14:39:54.233Z,42.28
2018-05-26T14:42:21.335Z,43.60
2018-05-26T14:44:47.942Z,43.69
2018-05-26T14:47:15.401Z,43.99
2018-05-26T14:49:42.654Z,43.93
2018-05-26T14:52:09.782Z,46.32
2018-05-26T14:54:36.893Z,46.14
2018-05-26T14:57:04.189Z,45.96
2018-05-26T14:59:30.565Z,43.18
2018-05-26T15:01:57.043Z,41.85
2018-05-26T15:04:23.417Z,40.36
2018-05-26T15:06:49.890Z,40.03
2018-05-26T15:09:16.518Z,38.58
2018-05-26T15:11:42.917Z,37.89
2018-05-26T15:14:09.305Z,35.60
2018-05-26T15:16:36.093Z,34.31
2018-05-26T15:19:02.482Z,33.75
2018-05-26T15:21:28.863Z,33.73
2018-05-26T15:23:55.386Z,33.42
2018-05-26T15:26:21.779Z,33.38
2018-05-26T15:28:48.143Z,33.47
2018-05-26T15:31:14.881Z,33.37
2018-05-26T15:33:41.264Z,33.20
2018-05-26T15:36:07.682Z,33.21
2018-05-26T15:38:34.400Z,32.75
2018-05-26T15:41:00.790Z,32.58
2018-05-26T15:43:27.558Z,32.64
2018-05-26T15:45:54.645Z,32.70
2018-05-26T15:48:21.246Z,32.18
2018-05-26T15:50:47.601Z,32.45
2018-05-26T15:53:13.979Z,32.83
2018-05-26T15:55:40.413Z,32.51
2018-05-26T15:58:06.981Z,32.82
2018-05-26T16:00:33.341Z,32.66
2018-05-26T16:03:00.700Z,32.75
2018-05-26T16:05:27.068Z,33.26
2018-05-26T16:07:54.216Z,33.29
2018-05-26T16:10:20.733Z,33.72
2018-05-26T16:12:47.114Z,34.05
2018-05-26T16:15:13.553Z,33.68
2018-05-26T16:17:40.588Z,34.00
2018-05-26T16:20:08.065Z,34.18
2018-05-26T16:22:34.421Z,34.19
2018-05-26T16:25:00.770Z,34.10
2018-05-26T16:27:27.127Z,34.25
2018-05-26T16:29:54.278Z,33.83
2018-05-26T16:32:21.440Z,33.34
2018-05-26T16:34:47.864Z,33.32
2018-05-26T16:37:14.978Z,33.18
2018-05-26T16:39:41.420Z,33.10
2018-05-26T16:42:07.868Z,33.40
2018-05-26T16:44:35.130Z,33.65
2018-05-26T16:47:02.241Z,34.14
2018-05-26T16:49:28.745Z,33.97
2018-05-26T16:51:55.152Z,33.20
2018-05-26T16:54:22.603Z,33.13
2018-05-26T16:56:49.960Z,33.56
2018-05-26T16:59:17.053Z,33.94
2018-05-26T17:01:43.413Z,35.06
2018-05-26T17:04:09.786Z,35.16
2018-05-26T17:06:36.202Z,35.26
2018-05-26T17:09:03.407Z,35.42
2018-05-26T17:11:29.798Z,36.40
2018-05-26T17:13:56.191Z,35.39
2018-05-26T17:16:23.337Z,34.51
2018-05-26T17:18:49.735Z,33.94
2018-05-26T17:21:16.134Z,33.91
2018-05-26T17:23:43.233Z,34.28
2018-05-26T17:26:09.594Z,34.15
2018-05-26T17:28:35.949Z,34.35
2018-05-26T17:31:02.340Z,34.46
2018-05-26T17:33:28.742Z,34.31
2018-05-26T17:35:55.117Z,33.92
2018-05-26T17:38:21.491Z,33.90
2018-05-26T17:40:47.912Z,33.43
2018-05-26T17:43:14.283Z,32.77
2018-05-26T17:45:40.673Z,31.95
2018-05-26T17:48:07.053Z,31.78
2018-05-26T17:50:33.474Z,31.61
2018-05-26T17:52:59.846Z,31.61
2018-05-26T17:55:27.004Z,31.62
2018-05-26T17:57:54.130Z,31.44
2018-05-26T18:00:21.422Z,31.16
2018-05-26T18:02:47.805Z,30.95
2018-05-26T18:05:14.236Z,30.68
2018-05-26T18:07:40.600Z,30.64
2018-05-26T18:10:07.734Z,30.06
2018-05-26T18:12:34.949Z,29.89
2018-05-26T18:15:01.391Z,30.12
2018-05-26T18:17:28.534Z,30.10
2018-05-26T18:19:54.992Z,30.13
2018-05-26T18:22:21.450Z,30.00
2018-05-26T18:24:48.575Z,29.94
2018-05-26T18:27:15.038Z,29.68
2018-05-26T18:29:42.335Z,29.58
2018-05-26T18:32:08.753Z,29.64
2018-05-26T18:34:35.311Z,29.16
2018-05-26T18:37:01.684Z,29.06
2018-05-26T18:39:28.834Z,29.02
2018-05-26T18:41:55.956Z,28.82
2018-05-26T18:44:22.326Z,28.86
2018-05-26T18:46:49.459Z,28.53
2018-05-26T18:49:16.754Z,28.33
2018-05-26T18:51:43.100Z,28.04
2018-05-26T18:54:09.489Z,27.98
2018-05-26T18:56:36.676Z,27.85
2018-05-26T18:59:03.033Z,27.50
2018-05-26T19:01:29.433Z,27.20
2018-05-26T19:03:55.797Z,27.09
2018-05-26T19:06:22.181Z,26.89
2018-05-26T19:08:48.601Z,26.69
2018-05-26T19:11:15.752Z,26.49
2018-05-26T19:13:42.878Z,26.43
2018-05-26T19:16:09.223Z,26.29
2018-05-26T19:18:36.381Z,26.24
2018-05-26T19:21:02.799Z,26.14
2018-05-26T19:23:30.167Z,26.08
2018-05-26T19:25:57.305Z,25.94
2018-05-26T19:28:31.391Z,25.88
2018-05-26T19:30:57.844Z,25.68
2018-05-26T19:33:24.173Z,25.66
2018-05-26T19:35:50.834Z,25.61
2018-05-26T19:38:18.185Z,25.59
2018-05-26T19:40:45.405Z,25.46
2018-05-26T19:43:11.817Z,25.55
2018-05-26T19:45:38.304Z,25.43
2018-05-26T19:48:05.407Z,25.21
2018-05-26T19:50:31.866Z,25.06
2018-05-26T19:52:58.965Z,24.95
2018-05-26T19:55:25.369Z,24.88
2018-05-26T19:57:52.494Z,24.99
2018-05-26T20:00:19.638Z,25.08
2018-05-26T20:02:46.415Z,25.07
2018-05-26T20:05:12.790Z,25.08
2018-05-26T20:07:39.190Z,24.88
2018-05-26T20:10:05.588Z,24.73
2018-05-26T20:12:32.788Z,24.71
2018-05-26T20:14:59.167Z,24.57
2018-05-26T20:17:26.295Z,24.46
2018-05-26T20:19:52.972Z,24.22
2018-05-26T20:22:20.207Z,24.08
2018-05-26T20:24:47.350Z,23.95
2018-05-26T20:29:47.739Z,23.84
2018-05-26T20:32:14.151Z,23.86
2018-05-26T20:37:12.857Z,23.70
2018-05-26T20:39:39.241Z,23.74
2018-05-26T20:42:05.698Z,23.60
2018-05-26T20:44:33.183Z,23.42
2018-05-26T20:49:33.614Z,23.36
2018-05-26T20:52:00.779Z,23.37
2018-05-26T20:54:27.187Z,23.36
2018-05-26T20:56:54.365Z,23.43
2018-05-26T20:59:20.730Z,23.43
2018-05-26T21:01:47.160Z,23.34
2018-05-26T21:04:13.603Z,23.32
2018-05-26T21:06:40.746Z,23.16
2018-05-26T21:09:07.608Z,23.20
2018-05-26T21:11:33.951Z,23.03
2018-05-26T21:14:01.176Z,23.12
2018-05-26T21:16:27.685Z,23.05
2018-05-26T21:18:54.077Z,22.95
2018-05-26T21:21:21.397Z,23.00
2018-05-26T21:23:48.046Z,22.97
2018-05-26T21:26:14.509Z,22.94
2018-05-26T21:28:41.656Z,23.01
2018-05-26T21:31:08.825Z,23.06
2018-05-26T21:33:35.274Z,22.81
2018-05-26T21:36:01.885Z,22.78
2018-05-26T21:38:29.029Z,22.70
2018-05-26T21:40:56.191Z,22.55
2018-05-26T21:43:22.690Z,22.41
2018-05-26T21:45:49.121Z,22.32
2018-05-26T21:48:15.605Z,22.29
2018-05-26T21:50:42.126Z,22.32
2018-05-26T21:53:08.481Z,22.37
2018-05-26T21:55:35.020Z,22.37
2018-05-26T21:58:01.750Z,22.37
2018-05-26T22:00:28.191Z,22.35
2018-05-26T22:02:54.601Z,22.28
2018-05-26T22:05:21.073Z,22.20
2018-05-26T22:07:47.455Z,22.15
2018-05-26T22:10:14.577Z,22.09
2018-05-26T22:12:41.036Z,22.10
2018-05-26T22:15:08.886Z,22.16
2018-05-26T22:17:36.031Z,22.09
2018-05-26T22:20:02.457Z,22.06
2018-05-26T22:22:28.839Z,22.10
2018-05-26T22:24:55.242Z,22.04
2018-05-26T22:27:22.361Z,22.05
2018-05-26T22:29:50.246Z,22.12
2018-05-26T22:32:17.359Z,22.02
2018-05-26T22:34:43.795Z,21.90
2018-05-26T22:37:10.215Z,21.83
2018-05-26T22:39:37.382Z,21.60
2018-05-26T22:42:04.946Z,21.45
2018-05-26T22:44:32.861Z,21.43
2018-05-26T22:47:01.343Z,21.38
2018-05-26T22:49:29.388Z,21.29
2018-05-26T22:51:57.654Z,21.22
2018-05-26T22:54:25.705Z,21.26
2018-05-26T22:56:52.425Z,21.29
2018-05-26T22:59:18.822Z,21.24
2018-05-26T23:01:46.011Z,21.29
2018-05-26T23:04:12.407Z,21.41
2018-05-26T23:06:39.621Z,21.38
2018-05-26T23:09:06.225Z,21.30
2018-05-26T23:11:32.594Z,21.24
2018-05-26T23:13:59.014Z,21.15
2018-05-26T23:16:25.703Z,21.09
2018-05-26T23:18:52.151Z,21.04
2018-05-26T23:21:18.574Z,20.93
2018-05-26T23:23:44.949Z,20.86
2018-05-26T23:26:11.635Z,20.84
2018-05-26T23:28:38.778Z,20.80
2018-05-26T23:31:06.366Z,20.75
2018-05-26T23:33:32.781Z,20.67
2018-05-26T23:35:59.145Z,20.61
2018-05-26T23:38:26.297Z,20.55
2018-05-26T23:40:52.899Z,20.48
2018-05-26T23:43:19.286Z,20.54
2018-05-26T23:45:45.966Z,20.59
2018-05-26T23:48:13.069Z,20.54
2018-05-26T23:50:39.506Z,20.45
2018-05-26T23:53:06.049Z,20.40
2018-05-26T23:55:34.153Z,20.45
2018-05-26T23:58:01.282Z,20.46
